sensor_id;sensor_type;location;lat;lon;timestamp;pressure;altitude;pressure_sealevel;temperature;humidity
50103;BME280;35993;52.604;10.078;2023-04-01T00:01:57;99138.13;;;9.51;100.00
50103;BME280;35993;52.604;10.078;2023-04-01T00:04:22;99136.81;;;9.54;100.00
50103;BME280;35993;52.604;10.078;2023-04-01T00:06:48;99141.16;;;9.55;100.00
50103;BME280;35993;52.604;10.078;2023-04-01T00:09:14;99133.56;;;9.51;100.00
50103;BME280;35993;52.604;10.078;2023-04-01T00:11:40;99137.88;;;9.52;100.00
50103;BME280;35993;52.604;10.078;2023-04-01T00:14:06;99146.25;;;9.51;100.00
50103;BME280;35993;52.604;10.078;2023-04-01T00:16:32;99138.13;;;9.51;100.00
50103;BME280;35993;52.604;10.078;2023-04-01T00:18:58;99137.31;;;9.50;100.00
50103;BME280;35993;52.604;10.078;2023-04-01T00:21:23;99138.38;;;9.49;100.00
50103;BME280;35993;52.604;10.078;2023-04-01T00:23:50;99142.16;;;9.48;100.00
50103;BME280;35993;52.604;10.078;2023-04-01T00:26:16;99139.97;;;9.45;100.00
50103;BME280;35993;52.604;10.078;2023-04-01T00:28:46;99139.44;;;9.48;100.00
50103;BME280;35993;52.604;10.078;2023-04-01T00:31:12;99138.38;;;9.49;100.00
50103;BME280;35993;52.604;10.078;2023-04-01T00:33:39;99130.78;;;9.46;100.00
50103;BME280;35993;52.604;10.078;2023-04-01T00:36:14;99135.09;;;9.47;100.00
50103;BME280;35993;52.604;10.078;2023-04-01T00:38:41;99142.75;;;9.50;100.00
50103;BME280;35993;52.604;10.078;2023-04-01T00:41:08;99133.78;;;9.50;100.00
50103;BME280;35993;52.604;10.078;2023-04-01T00:43:40;99128.28;;;9.45;100.00
50103;BME280;35993;52.604;10.078;2023-04-01T00:46:06;99131.00;;;9.45;100.00
50103;BME280;35993;52.604;10.078;2023-04-01T00:48:34;99131.56;;;9.47;100.00
50103;BME280;35993;52.604;10.078;2023-04-01T00:51:06;99129.13;;;9.45;100.00
50103;BME280;35993;52.604;10.078;2023-04-01T00:53:34;99122.31;;;9.43;100.00
50103;BME280;35993;52.604;10.078;2023-04-01T00:56:07;99130.19;;;9.44;100.00
50103;BME280;35993;52.604;10.078;2023-04-01T00:58:38;99126.91;;;9.42;100.00
50103;BME280;35993;52.604;10.078;2023-04-01T01:01:06;99125.84;;;9.43;100.00
50103;BME280;35993;52.604;10.078;2023-04-01T01:03:31;99133.97;;;9.43;100.00
50103;BME280;35993;52.604;10.078;2023-04-01T01:06:17;99137.50;;;9.44;100.00
50103;BME280;35993;52.604;10.078;2023-04-01T01:11:15;99130.44;;;9.43;100.00
50103;BME280;35993;52.604;10.078;2023-04-01T01:14:29;99135.69;;;9.49;100.00
50103;BME280;35993;52.604;10.078;2023-04-01T01:20:11;99133.22;;;9.48;100.00
50103;BME280;35993;52.604;10.078;2023-04-01T01:31:25;99128.63;;;9.48;100.00
50103;BME280;35993;52.604;10.078;2023-04-01T01:36:44;99127.72;;;9.43;100.00
50103;BME280;35993;52.604;10.078;2023-04-01T01:39:12;99130.44;;;9.43;100.00
50103;BME280;35993;52.604;10.078;2023-04-01T01:41:41;99131.75;;;9.40;100.00
50103;BME280;35993;52.604;10.078;2023-04-01T01:44:10;99127.47;;;9.44;100.00
50103;BME280;35993;52.604;10.078;2023-04-01T01:46:37;99123.72;;;9.45;100.00
50103;BME280;35993;52.604;10.078;2023-04-01T01:49:06;99132.38;;;9.47;100.00
50103;BME280;35993;52.604;10.078;2023-04-01T01:51:33;99128.63;;;9.48;100.00
50103;BME280;35993;52.604;10.078;2023-04-01T01:54:01;99135.16;;;9.52;100.00
50103;BME280;35993;52.604;10.078;2023-04-01T01:56:29;99129.44;;;9.49;100.00
50103;BME280;35993;52.604;10.078;2023-04-01T01:59:08;99134.88;;;9.49;100.00
50103;BME280;35993;52.604;10.078;2023-04-01T02:01:37;99126.97;;;9.47;100.00
50103;BME280;35993;52.604;10.078;2023-04-01T02:04:10;99131.06;;;9.50;100.00
50103;BME280;35993;52.604;10.078;2023-04-01T02:06:39;99137.06;;;9.52;100.00
50103;BME280;35993;52.604;10.078;2023-04-01T02:09:08;99132.97;;;9.49;100.00
50103;BME280;35993;52.604;10.078;2023-04-01T02:11:37;99134.88;;;9.49;100.00
50103;BME280;35993;52.604;10.078;2023-04-01T02:17:12;99135.09;;;9.47;100.00
50103;BME280;35993;52.604;10.078;2023-04-01T02:19:49;99132.63;;;9.46;100.00
50103;BME280;35993;52.604;10.078;2023-04-01T02:22:18;99134.53;;;9.45;100.00
50103;BME280;35993;52.604;10.078;2023-04-01T02:24:46;99138.91;;;9.46;100.00
50103;BME280;35993;52.604;10.078;2023-04-01T02:27:13;99136.19;;;9.46;100.00
50103;BME280;35993;52.604;10.078;2023-04-01T02:29:39;99140.50;;;9.47;100.00
50103;BME280;35993;52.604;10.078;2023-04-01T02:32:08;99141.59;;;9.46;100.00
50103;BME280;35993;52.604;10.078;2023-04-01T02:34:34;99137.50;;;9.44;100.00
50103;BME280;35993;52.604;10.078;2023-04-01T02:37:00;99141.59;;;9.46;100.00
50103;BME280;35993;52.604;10.078;2023-04-01T02:39:26;99140.75;;;9.46;100.00
50103;BME280;35993;52.604;10.078;2023-04-01T02:41:52;99142.09;;;9.43;100.00
50103;BME280;35993;52.604;10.078;2023-04-01T02:44:18;99143.97;;;9.43;100.00
50103;BME280;35993;52.604;10.078;2023-04-01T02:46:43;99141.53;;;9.41;100.00
50103;BME280;35993;52.604;10.078;2023-04-01T02:49:09;99144.47;;;9.40;100.00
50103;BME280;35993;52.604;10.078;2023-04-01T02:51:35;99150.72;;;9.40;100.00
50103;BME280;35993;52.604;10.078;2023-04-01T02:54:01;99150.47;;;9.42;100.00
50103;BME280;35993;52.604;10.078;2023-04-01T02:56:27;99143.91;;;9.38;100.00
50103;BME280;35993;52.604;10.078;2023-04-01T02:58:53;99147.44;;;9.38;100.00
50103;BME280;35993;52.604;10.078;2023-04-01T03:01:20;99154.75;;;9.38;100.00
50103;BME280;35993;52.604;10.078;2023-04-01T03:03:46;99151.44;;;9.35;100.00
50103;BME280;35993;52.604;10.078;2023-04-01T03:06:12;99149.31;;;9.38;100.00
50103;BME280;35993;52.604;10.078;2023-04-01T03:08:38;99151.69;;;9.34;100.00
50103;BME280;35993;52.604;10.078;2023-04-01T03:11:05;99154.16;;;9.35;100.00
50103;BME280;35993;52.604;10.078;2023-04-01T03:13:33;99154.16;;;9.35;100.00
50103;BME280;35993;52.604;10.078;2023-04-01T03:16:00;99149.00;;;9.34;100.00
50103;BME280;35993;52.604;10.078;2023-04-01T03:18:25;99160.06;;;9.32;100.00
50103;BME280;35993;52.604;10.078;2023-04-01T03:20:51;99165.50;;;9.32;100.00
50103;BME280;35993;52.604;10.078;2023-04-01T03:23:17;99163.34;;;9.34;100.00
50103;BME280;35993;52.604;10.078;2023-04-01T03:25:45;99165.25;;;9.34;100.00
50103;BME280;35993;52.604;10.078;2023-04-01T03:28:10;99159.25;;;9.32;100.00
50103;BME280;35993;52.604;10.078;2023-04-01T03:30:37;99167.88;;;9.29;100.00
50103;BME280;35993;52.604;10.078;2023-04-01T03:33:03;99158.59;;;9.25;100.00
50103;BME280;35993;52.604;10.078;2023-04-01T03:35:30;99160.72;;;9.23;100.00
50103;BME280;35993;52.604;10.078;2023-04-01T03:37:56;99167.53;;;9.25;100.00
50103;BME280;35993;52.604;10.078;2023-04-01T03:40:22;99165.09;;;9.24;100.00
50103;BME280;35993;52.604;10.078;2023-04-01T03:42:47;99172.44;;;9.28;100.00
50103;BME280;35993;52.604;10.078;2023-04-01T03:45:14;99174.59;;;9.26;100.00
50103;BME280;35993;52.604;10.078;2023-04-01T03:47:39;99174.84;;;9.25;100.00
50103;BME280;35993;52.604;10.078;2023-04-01T03:50:06;99170.50;;;9.24;100.00
50103;BME280;35993;52.604;10.078;2023-04-01T03:52:32;99176.63;;;9.19;100.00
50103;BME280;35993;52.604;10.078;2023-04-01T03:54:58;99170.41;;;9.18;100.00
50103;BME280;35993;52.604;10.078;2023-04-01T03:57:24;99174.25;;;9.23;100.00
50103;BME280;35993;52.604;10.078;2023-04-01T03:59:51;99172.38;;;9.23;100.00
50103;BME280;35993;52.604;10.078;2023-04-01T04:02:17;99175.91;;;9.24;100.00
50103;BME280;35993;52.604;10.078;2023-04-01T04:04:42;99179.69;;;9.23;100.00
50103;BME280;35993;52.604;10.078;2023-04-01T04:07:08;99171.22;;;9.19;100.00
50103;BME280;35993;52.604;10.078;2023-04-01T04:09:53;99180.50;;;9.23;100.00
50103;BME280;35993;52.604;10.078;2023-04-01T04:12:19;99179.09;;;9.21;100.00
50103;BME280;35993;52.604;10.078;2023-04-01T04:14:45;99179.69;;;9.23;100.00
50103;BME280;35993;52.604;10.078;2023-04-01T04:17:11;99175.06;;;9.23;100.00
50103;BME280;35993;52.604;10.078;2023-04-01T04:19:42;99180.75;;;9.22;100.00
50103;BME280;35993;52.604;10.078;2023-04-01T04:22:08;99184.19;;;9.17;100.00
50103;BME280;35993;52.604;10.078;2023-04-01T04:24:34;99185.00;;;9.17;100.00
50103;BME280;35993;52.604;10.078;2023-04-01T04:27:06;99191.50;;;9.16;100.00
50103;BME280;35993;52.604;10.078;2023-04-01T04:29:33;99188.44;;;9.13;100.00
50103;BME280;35993;52.604;10.078;2023-04-01T04:31:59;99193.63;;;9.14;100.00
50103;BME280;35993;52.604;10.078;2023-04-01T04:34:26;99196.09;;;9.16;100.00
50103;BME280;35993;52.604;10.078;2023-04-01T04:36:51;99199.06;;;9.14;100.00
50103;BME280;35993;52.604;10.078;2023-04-01T04:39:18;99199.28;;;9.13;100.00
50103;BME280;35993;52.604;10.078;2023-04-01T04:41:43;99200.38;;;9.12;100.00
50103;BME280;35993;52.604;10.078;2023-04-01T04:44:09;99204.13;;;9.11;100.00
50103;BME280;35993;52.604;10.078;2023-04-01T04:46:35;99206.84;;;9.11;100.00
50103;BME280;35993;52.604;10.078;2023-04-01T04:49:11;99197.56;;;9.07;100.00
50103;BME280;35993;52.604;10.078;2023-04-01T04:51:37;99209.28;;;9.12;100.00
50103;BME280;35993;52.604;10.078;2023-04-01T04:54:03;99208.22;;;9.13;100.00
50103;BME280;35993;52.604;10.078;2023-04-01T04:56:43;99206.50;;;9.07;100.00
50103;BME280;35993;52.604;10.078;2023-04-01T04:59:09;99213.31;;;9.10;100.00
50103;BME280;35993;52.604;10.078;2023-04-01T05:01:44;99213.66;;;9.13;100.00
50103;BME280;35993;52.604;10.078;2023-04-01T05:04:10;99220.72;;;9.14;100.00
50103;BME280;35993;52.604;10.078;2023-04-01T05:06:36;99216.09;;;9.15;100.00
50103;BME280;35993;52.604;10.078;2023-04-01T05:09:02;99215.50;;;9.13;100.00
50103;BME280;35993;52.604;10.078;2023-04-01T05:11:27;99219.88;;;9.14;100.00
50103;BME280;35993;52.604;10.078;2023-04-01T05:13:54;99223.63;;;9.13;100.00
50103;BME280;35993;52.604;10.078;2023-04-01T05:16:20;99217.41;;;9.12;100.00
50103;BME280;35993;52.604;10.078;2023-04-01T05:18:46;99223.41;;;9.14;100.00
50103;BME280;35993;52.604;10.078;2023-04-01T05:21:13;99224.22;;;9.15;100.00
50103;BME280;35993;52.604;10.078;2023-04-01T05:23:39;99220.47;;;9.16;100.00
50103;BME280;35993;52.604;10.078;2023-04-01T05:26:06;99226.94;;;9.15;100.00
50103;BME280;35993;52.604;10.078;2023-04-01T05:28:33;99225.28;;;9.14;100.00
50103;BME280;35993;52.604;10.078;2023-04-01T05:31:00;99234.00;;;9.16;100.00
50103;BME280;35993;52.604;10.078;2023-04-01T05:33:30;99234.00;;;9.16;100.00
50103;BME280;35993;52.604;10.078;2023-04-01T05:35:56;99233.16;;;9.15;100.00
50103;BME280;35993;52.604;10.078;2023-04-01T05:38:30;99226.94;;;9.15;100.00
50103;BME280;35993;52.604;10.078;2023-04-01T05:41:01;99235.31;;;9.13;100.00
50103;BME280;35993;52.604;10.078;2023-04-01T05:43:28;99235.31;;;9.13;100.00
50103;BME280;35993;52.604;10.078;2023-04-01T05:45:57;99242.13;;;9.16;100.00
50103;BME280;35993;52.604;10.078;2023-04-01T05:48:36;99238.34;;;9.17;100.00
50103;BME280;35993;52.604;10.078;2023-04-01T05:51:02;99242.69;;;9.18;100.00
50103;BME280;35993;52.604;10.078;2023-04-01T05:53:28;99240.31;;;9.22;100.00
50103;BME280;35993;52.604;10.078;2023-04-01T05:55:54;99238.44;;;9.22;100.00
50103;BME280;35993;52.604;10.078;2023-04-01T05:58:19;99240.91;;;9.24;100.00
50103;BME280;35993;52.604;10.078;2023-04-01T06:00:46;99250.16;;;9.28;100.00
50103;BME280;35993;52.604;10.078;2023-04-01T06:03:12;99246.31;;;9.24;100.00
50103;BME280;35993;52.604;10.078;2023-04-01T06:05:41;99246.66;;;9.27;100.00
50103;BME280;35993;52.604;10.078;2023-04-01T06:08:12;99252.63;;;9.29;100.00
50103;BME280;35993;52.604;10.078;2023-04-01T06:13:44;99251.66;;;9.35;100.00
50103;BME280;35993;52.604;10.078;2023-04-01T06:25:13;99253.97;;;9.44;100.00
50103;BME280;35993;52.604;10.078;2023-04-01T06:27:50;99258.63;;;9.48;100.00
50103;BME280;35993;52.604;10.078;2023-04-01T06:38:26;99270.78;;;9.63;100.00
50103;BME280;35993;52.604;10.078;2023-04-01T06:56:30;99273.59;;;9.85;100.00
50103;BME280;35993;52.604;10.078;2023-04-01T06:59:05;99280.72;;;9.91;100.00
50103;BME280;35993;52.604;10.078;2023-04-01T07:01:41;99277.50;;;9.94;100.00
50103;BME280;35993;52.604;10.078;2023-04-01T07:04:18;99281.38;;;9.98;100.00
50103;BME280;35993;52.604;10.078;2023-04-01T07:06:58;99278.66;;;9.98;100.00
50103;BME280;35993;52.604;10.078;2023-04-01T07:09:35;99283.78;;;9.95;100.00
50103;BME280;35993;52.604;10.078;2023-04-01T07:15:24;99288.66;;;10.15;100.00
50103;BME280;35993;52.604;10.078;2023-04-01T07:18:36;99288.47;;;10.22;100.00
50103;BME280;35993;52.604;10.078;2023-04-01T07:21:02;99295.94;;;10.31;100.00
50103;BME280;35993;52.604;10.078;2023-04-01T07:23:33;99297.84;;;10.31;100.00
50103;BME280;35993;52.604;10.078;2023-04-01T07:26:27;99300.56;;;10.31;100.00
50103;BME280;35993;52.604;10.078;2023-04-01T07:29:10;99299.25;;;10.33;100.00
50103;BME280;35993;52.604;10.078;2023-04-01T07:37:05;99308.94;;;10.46;100.00
50103;BME280;35993;52.604;10.078;2023-04-01T07:45:43;99323.69;;;10.56;100.00
50103;BME280;35993;52.604;10.078;2023-04-01T07:50:57;99323.56;;;10.68;100.00
50103;BME280;35993;52.604;10.078;2023-04-01T07:53:46;99330.66;;;10.69;100.00
50103;BME280;35993;52.604;10.078;2023-04-01T07:56:36;99335.41;;;10.78;100.00
50103;BME280;35993;52.604;10.078;2023-04-01T08:07:20;99342.47;;;10.79;100.00
50103;BME280;35993;52.604;10.078;2023-04-01T08:10:22;99338.38;;;10.77;100.00
50103;BME280;35993;52.604;10.078;2023-04-01T08:13:39;99344.53;;;10.94;100.00
50103;BME280;35993;52.604;10.078;2023-04-01T08:22:03;99351.63;;;10.95;100.00
50103;BME280;35993;52.604;10.078;2023-04-01T08:24:46;99349.47;;;10.97;100.00
50103;BME280;35993;52.604;10.078;2023-04-01T08:27:24;99360.34;;;10.97;100.00
50103;BME280;35993;52.604;10.078;2023-04-01T08:30:15;99366.25;;;10.94;100.00
50103;BME280;35993;52.604;10.078;2023-04-01T08:32:47;99366.47;;;10.88;100.00
50103;BME280;35993;52.604;10.078;2023-04-01T08:35:24;99365.72;;;10.92;100.00
50103;BME280;35993;52.604;10.078;2023-04-01T08:37:54;99355.78;;;11.03;100.00
50103;BME280;35993;52.604;10.078;2023-04-01T08:40:38;99358.44;;;10.98;100.00
50103;BME280;35993;52.604;10.078;2023-04-01T08:48:58;99366.81;;;11.19;100.00
50103;BME280;35993;52.604;10.078;2023-04-01T08:54:05;99372.84;;;11.21;100.00
50103;BME280;35993;52.604;10.078;2023-04-01T08:57:01;99373.41;;;11.23;100.00
50103;BME280;35993;52.604;10.078;2023-04-01T08:59:53;99376.91;;;11.45;100.00
50103;BME280;35993;52.604;10.078;2023-04-01T09:23:15;99382.31;;;11.45;100.00
50103;BME280;35993;52.604;10.078;2023-04-01T09:29:05;99385.56;;;11.70;100.00
50103;BME280;35993;52.604;10.078;2023-04-01T09:37:49;99397.47;;;11.63;100.00
50103;BME280;35993;52.604;10.078;2023-04-01T09:40:28;99402.41;;;11.67;100.00
50103;BME280;35993;52.604;10.078;2023-04-01T09:43:27;99401.59;;;11.71;100.00
50103;BME280;35993;52.604;10.078;2023-04-01T09:46:14;99408.75;;;11.77;100.00
50103;BME280;35993;52.604;10.078;2023-04-01T09:54:22;99417.31;;;11.64;100.00
50103;BME280;35993;52.604;10.078;2023-04-01T09:59:53;99420.03;;;11.64;100.00
50103;BME280;35993;52.604;10.078;2023-04-01T10:03:15;99418.56;;;11.78;100.00
50103;BME280;35993;52.604;10.078;2023-04-01T10:14:51;99428.66;;;11.83;100.00
50103;BME280;35993;52.604;10.078;2023-04-01T10:26:06;99435.97;;;11.83;100.00
50103;BME280;35993;52.604;10.078;2023-04-01T10:40:46;99445.75;;;11.78;100.00
50103;BME280;35993;52.604;10.078;2023-04-01T10:44:06;99450.31;;;11.73;100.00
50103;BME280;35993;52.604;10.078;2023-04-01T10:47:14;99451.88;;;11.69;100.00
50103;BME280;35993;52.604;10.078;2023-04-01T11:13:21;99470.31;;;11.61;100.00
50103;BME280;35993;52.604;10.078;2023-04-01T11:30:11;99477.38;;;12.12;100.00
50103;BME280;35993;52.604;10.078;2023-04-01T11:35:20;99500.28;;;12.16;100.00
50103;BME280;35993;52.604;10.078;2023-04-01T11:38:00;99495.97;;;12.20;100.00
50103;BME280;35993;52.604;10.078;2023-04-01T11:41:02;99494.56;;;12.18;100.00
50103;BME280;35993;52.604;10.078;2023-04-01T11:44:19;99503.13;;;12.04;100.00
50103;BME280;35993;52.604;10.078;2023-04-01T11:47:33;99503.09;;;11.99;100.00
50103;BME280;35993;52.604;10.078;2023-04-01T11:53:18;99519.41;;;11.99;100.00
50103;BME280;35993;52.604;10.078;2023-04-01T11:55:47;99520.59;;;11.86;100.00
50103;BME280;35993;52.604;10.078;2023-04-01T11:58:57;99522.63;;;11.74;100.00
50103;BME280;35993;52.604;10.078;2023-04-01T12:07:57;99551.47;;;10.96;100.00
50103;BME280;35993;52.604;10.078;2023-04-01T12:13:59;99564.56;;;10.65;100.00
50103;BME280;35993;52.604;10.078;2023-04-01T12:16:51;99559.31;;;10.59;100.00
50103;BME280;35993;52.604;10.078;2023-04-01T12:19:32;99568.97;;;10.55;100.00
50103;BME280;35993;52.604;10.078;2023-04-01T12:22:26;99568.25;;;10.42;100.00
50103;BME280;35993;52.604;10.078;2023-04-01T12:24:58;99577.56;;;10.35;100.00
50103;BME280;35993;52.604;10.078;2023-04-01T12:30:26;99579.56;;;10.10;100.00
50103;BME280;35993;52.604;10.078;2023-04-01T12:33:10;99588.69;;;9.92;100.00
50103;BME280;35993;52.604;10.078;2023-04-01T12:52:15;99621.63;;;9.60;100.00
50103;BME280;35993;52.604;10.078;2023-04-01T13:04:02;99646.25;;;9.47;100.00
50103;BME280;35993;52.604;10.078;2023-04-01T13:06:49;99641.78;;;9.41;100.00
50103;BME280;35993;52.604;10.078;2023-04-01T13:09:40;99640.00;;;9.34;100.00
50103;BME280;35993;52.604;10.078;2023-04-01T13:15:23;99659.22;;;9.33;100.00
50103;BME280;35993;52.604;10.078;2023-04-01T13:20:58;99677.56;;;9.19;100.00
50103;BME280;35993;52.604;10.078;2023-04-01T13:26:21;99678.63;;;9.18;100.00
50103;BME280;35993;52.604;10.078;2023-04-01T13:29:02;99683.09;;;9.12;100.00
50103;BME280;35993;52.604;10.078;2023-04-01T13:31:37;99677.31;;;9.09;100.00
50103;BME280;35993;52.604;10.078;2023-04-01T13:35:00;99680.13;;;9.02;100.00
50103;BME280;35993;52.604;10.078;2023-04-01T13:45:08;99693.06;;;9.00;100.00
50103;BME280;35993;52.604;10.078;2023-04-01T14:07:00;99720.44;;;8.80;100.00
50103;BME280;35993;52.604;10.078;2023-04-01T14:12:30;99734.88;;;8.74;100.00
50103;BME280;35993;52.604;10.078;2023-04-01T14:25:58;99750.44;;;8.41;100.00
50103;BME280;35993;52.604;10.078;2023-04-01T14:28:43;99764.56;;;8.43;100.00
50103;BME280;35993;52.604;10.078;2023-04-01T14:31:51;99771.69;;;8.37;100.00
50103;BME280;35993;52.604;10.078;2023-04-01T14:37:19;99783.34;;;8.38;100.00
50103;BME280;35993;52.604;10.078;2023-04-01T14:51:02;99808.75;;;8.18;100.00
50103;BME280;35993;52.604;10.078;2023-04-01T14:53:32;99806.03;;;8.18;100.00
50103;BME280;35993;52.604;10.078;2023-04-01T14:56:02;99810.97;;;8.22;100.00
50103;BME280;35993;52.604;10.078;2023-04-01T15:06:56;99820.28;;;8.07;100.00
50103;BME280;35993;52.604;10.078;2023-04-01T15:09:52;99833.03;;;8.00;100.00
50103;BME280;35993;52.604;10.078;2023-04-01T15:14:57;99841.19;;;7.93;100.00
50103;BME280;35993;52.604;10.078;2023-04-01T15:17:57;99846.84;;;7.85;100.00
50103;BME280;35993;52.604;10.078;2023-04-01T15:39:54;99894.84;;;7.58;100.00
50103;BME280;35993;52.604;10.078;2023-04-01T15:42:48;99896.34;;;7.53;100.00
50103;BME280;35993;52.604;10.078;2023-04-01T15:47:59;99907.78;;;7.49;100.00
50103;BME280;35993;52.604;10.078;2023-04-01T15:50:52;99916.50;;;7.51;100.00
50103;BME280;35993;52.604;10.078;2023-04-01T16:01:59;99933.75;;;7.50;100.00
50103;BME280;35993;52.604;10.078;2023-04-01T16:08:16;99936.50;;;7.43;100.00
50103;BME280;35993;52.604;10.078;2023-04-01T16:10:58;99944.06;;;7.28;100.00
50103;BME280;35993;52.604;10.078;2023-04-01T16:13:38;99944.25;;;7.26;100.00
50103;BME280;35993;52.604;10.078;2023-04-01T16:16:26;99954.22;;;7.26;100.00
50103;BME280;35993;52.604;10.078;2023-04-01T16:21:58;99967.31;;;7.22;100.00
50103;BME280;35993;52.604;10.078;2023-04-01T16:24:40;99967.50;;;7.27;100.00
50103;BME280;35993;52.604;10.078;2023-04-01T16:27:16;99978.09;;;7.22;100.00
50103;BME280;35993;52.604;10.078;2023-04-01T16:29:45;99976.25;;;7.16;100.00
50103;BME280;35993;52.604;10.078;2023-04-01T16:32:28;99982.72;;;7.08;100.00
50103;BME280;35993;52.604;10.078;2023-04-01T16:37:38;99984.16;;;7.11;100.00
50103;BME280;35993;52.604;10.078;2023-04-01T16:42:52;99997.91;;;6.96;100.00
50103;BME280;35993;52.604;10.078;2023-04-01T16:45:33;100011.59;;;6.94;100.00
50103;BME280;35993;52.604;10.078;2023-04-01T16:48:15;100015.97;;;6.88;100.00
50103;BME280;35993;52.604;10.078;2023-04-01T16:50:58;100023.47;;;6.80;100.00
50103;BME280;35993;52.604;10.078;2023-04-01T16:53:45;100025.94;;;6.81;100.00
50103;BME280;35993;52.604;10.078;2023-04-01T16:56:27;100044.22;;;6.79;100.00
50103;BME280;35993;52.604;10.078;2023-04-01T17:21:00;100083.41;;;6.48;100.00
50103;BME280;35993;52.604;10.078;2023-04-01T17:23:52;100092.75;;;6.52;100.00
50103;BME280;35993;52.604;10.078;2023-04-01T17:26:26;100102.28;;;6.48;100.00
50103;BME280;35993;52.604;10.078;2023-04-01T17:29:12;100107.06;;;6.46;100.00
50103;BME280;35993;52.604;10.078;2023-04-01T17:40:15;100132.16;;;6.47;100.00
50103;BME280;35993;52.604;10.078;2023-04-01T17:48:01;100160.47;;;6.16;100.00
50103;BME280;35993;52.604;10.078;2023-04-01T17:53:19;100158.13;;;6.06;100.00
50103;BME280;35993;52.604;10.078;2023-04-01T17:55:50;100169.75;;;6.00;100.00
50103;BME280;35993;52.604;10.078;2023-04-01T17:58:20;100191.03;;;5.95;100.00
50103;BME280;35993;52.604;10.078;2023-04-01T18:12:21;100206.78;;;5.98;100.00
50103;BME280;35993;52.604;10.078;2023-04-01T18:26:34;100250.22;;;5.81;100.00
50103;BME280;35993;52.604;10.078;2023-04-01T18:29:13;100256.00;;;5.78;100.00
50103;BME280;35993;52.604;10.078;2023-04-01T18:32:13;100255.75;;;5.73;100.00
50103;BME280;35993;52.604;10.078;2023-04-01T18:37:17;100266.38;;;5.81;100.00
50103;BME280;35993;52.604;10.078;2023-04-01T18:40:11;100264.63;;;5.67;100.00
50103;BME280;35993;52.604;10.078;2023-04-01T18:42:46;100274.63;;;5.73;100.00
50103;BME280;35993;52.604;10.078;2023-04-01T18:45:25;100278.13;;;5.73;100.00
50103;BME280;35993;52.604;10.078;2023-04-01T18:48:14;100285.75;;;5.70;100.00
50103;BME280;35993;52.604;10.078;2023-04-01T18:50:50;100294.25;;;5.67;100.00
50103;BME280;35993;52.604;10.078;2023-04-01T18:53:30;100299.63;;;5.67;100.00
50103;BME280;35993;52.604;10.078;2023-04-01T18:56:02;100303.31;;;5.59;100.00
50103;BME280;35993;52.604;10.078;2023-04-01T19:01:31;100308.81;;;5.51;100.00
50103;BME280;35993;52.604;10.078;2023-04-01T19:06:54;100322.41;;;5.43;100.00
50103;BME280;35993;52.604;10.078;2023-04-01T19:09:25;100330.44;;;5.36;100.00
50103;BME280;35993;52.604;10.078;2023-04-01T19:12:01;100337.84;;;5.34;100.00
50103;BME280;35993;52.604;10.078;2023-04-01T19:19:56;100352.13;;;5.34;100.00
50103;BME280;35993;52.604;10.078;2023-04-01T19:25:38;100363.94;;;5.33;100.00
50103;BME280;35993;52.604;10.078;2023-04-01T19:33:52;100365.78;;;5.33;100.00
50103;BME280;35993;52.604;10.078;2023-04-01T19:36:35;100388.47;;;5.23;100.00
50103;BME280;35993;52.604;10.078;2023-04-01T19:39:24;100397.97;;;5.19;100.00
50103;BME280;35993;52.604;10.078;2023-04-01T19:44:47;100408.81;;;5.11;100.00
50103;BME280;35993;52.604;10.078;2023-04-01T19:50:29;100429.97;;;5.14;100.00
50103;BME280;35993;52.604;10.078;2023-04-01T19:53:11;100422.19;;;5.04;100.00
50103;BME280;35993;52.604;10.078;2023-04-01T19:55:50;100436.94;;;4.93;100.00
50103;BME280;35993;52.604;10.078;2023-04-01T19:58:28;100436.50;;;4.90;100.00
50103;BME280;35993;52.604;10.078;2023-04-01T20:01:03;100445.78;;;4.87;100.00
50103;BME280;35993;52.604;10.078;2023-04-01T20:11:34;100470.50;;;4.68;100.00
50103;BME280;35993;52.604;10.078;2023-04-01T20:19:33;100481.19;;;4.76;100.00
50103;BME280;35993;52.604;10.078;2023-04-01T20:21:59;100488.41;;;4.75;100.00
50103;BME280;35993;52.604;10.078;2023-04-01T20:24:41;100489.06;;;4.78;100.00
50103;BME280;35993;52.604;10.078;2023-04-01T20:27:16;100501.59;;;4.85;100.00
50103;BME280;35993;52.604;10.078;2023-04-01T20:29:55;100511.53;;;4.85;100.00
50103;BME280;35993;52.604;10.078;2023-04-01T20:32:34;100515.88;;;4.86;100.00
50103;BME280;35993;52.604;10.078;2023-04-01T20:35:36;100519.97;;;4.82;100.00
50103;BME280;35993;52.604;10.078;2023-04-01T20:43:48;100529.66;;;4.68;100.00
50103;BME280;35993;52.604;10.078;2023-04-01T20:46:32;100540.13;;;4.63;100.00
50103;BME280;35993;52.604;10.078;2023-04-01T20:52:24;100555.34;;;4.55;100.00
50103;BME280;35993;52.604;10.078;2023-04-01T20:57:32;100557.91;;;4.49;100.00
50103;BME280;35993;52.604;10.078;2023-04-01T21:00:31;100566.88;;;4.41;100.00
50103;BME280;35993;52.604;10.078;2023-04-01T21:03:10;100566.94;;;4.33;100.00
50103;BME280;35993;52.604;10.078;2023-04-01T21:08:52;100588.06;;;4.36;100.00
50103;BME280;35993;52.604;10.078;2023-04-01T21:13:59;100595.91;;;4.22;100.00
50103;BME280;35993;52.604;10.078;2023-04-01T21:27:32;100615.00;;;4.04;100.00
50103;BME280;35993;52.604;10.078;2023-04-01T21:33:07;100632.25;;;4.10;100.00
50103;BME280;35993;52.604;10.078;2023-04-01T21:38:27;100631.63;;;4.00;100.00
50103;BME280;35993;52.604;10.078;2023-04-01T21:41:07;100645.72;;;4.02;100.00
50103;BME280;35993;52.604;10.078;2023-04-01T21:49:49;100669.75;;;3.95;100.00
50103;BME280;35993;52.604;10.078;2023-04-01T22:00:40;100677.84;;;3.87;100.00